createdAt,value
2023-01-27T00:00:43.508Z,99502.00
2023-01-27T00:03:12.262Z,99499.34
2023-01-27T00:05:38.883Z,99509.47
2023-01-27T00:08:05.545Z,99501.78
2023-01-27T00:10:32.111Z,99500.97
2023-01-27T00:12:59.986Z,99496.41
2023-01-27T00:15:26.812Z,99503.06
2023-01-27T00:17:53.411Z,99499.66
2023-01-27T00:20:20.191Z,99504.22
2023-01-27T00:22:46.717Z,99505.00
2023-01-27T00:25:13.466Z,99498.84
2023-01-27T00:27:40.158Z,99497.22
2023-01-27T00:30:09.971Z,99493.75
2023-01-27T00:32:36.808Z,99500.16
2023-01-27T00:35:03.953Z,99492.13
2023-01-27T00:37:30.465Z,99496.66
2023-01-27T00:39:57.033Z,99499.34
2023-01-27T00:42:23.686Z,99492.44
2023-01-27T00:44:50.240Z,99493.50
2023-01-27T00:47:18.168Z,99485.72
2023-01-27T00:49:44.721Z,99490.25
2023-01-27T00:52:11.324Z,99494.56
2023-01-27T00:54:37.910Z,99490.03
2023-01-27T00:57:04.447Z,99495.38
2023-01-27T00:59:30.984Z,99493.78
2023-01-27T01:01:57.515Z,99494.31
2023-01-27T01:04:25.445Z,99489.22
2023-01-27T01:06:52.026Z,99497.56
2023-01-27T01:09:18.597Z,99495.13
2023-01-27T01:11:45.142Z,99503.69
2023-01-27T01:14:11.701Z,99510.59
2023-01-27T01:16:38.456Z,99513.28
2023-01-27T01:19:05.032Z,99502.81
2023-01-27T01:21:32.905Z,99493.44
2023-01-27T01:23:59.531Z,99506.56
2023-01-27T01:26:26.360Z,99509.22
2023-01-27T01:28:53.028Z,99505.75
2023-01-27T01:31:20.702Z,99507.13
2023-01-27T01:33:47.975Z,99509.22
2023-01-27T01:36:16.905Z,99512.22
2023-01-27T01:38:44.993Z,99514.91
2023-01-27T01:41:13.211Z,99513.28
2023-01-27T01:43:40.102Z,99518.88
2023-01-27T01:46:09.870Z,99515.72
2023-01-27T01:48:40.383Z,99523.75
2023-01-27T01:51:11.131Z,99516.78
2023-01-27T01:53:43.192Z,99516.53
2023-01-27T01:56:16.910Z,99520.00
2023-01-27T01:58:45.469Z,99521.88
2023-01-27T02:01:14.071Z,99526.66
2023-01-27T02:03:44.787Z,99520.50
2023-01-27T02:06:11.641Z,99516.78
2023-01-27T02:08:40.541Z,99522.38
2023-01-27T02:11:08.291Z,99518.06
2023-01-27T02:13:36.641Z,99510.03
2023-01-27T02:16:03.591Z,99510.28
2023-01-27T02:18:30.432Z,99510.59
2023-01-27T02:20:57.422Z,99514.91
2023-01-27T02:23:38.522Z,99506.06
2023-01-27T02:26:12.875Z,99513.28
2023-01-27T02:28:39.424Z,99510.84
2023-01-27T02:31:06.190Z,99516.19
2023-01-27T02:33:32.843Z,99519.19
2023-01-27T02:36:04.241Z,99522.41
2023-01-27T02:38:35.158Z,99522.69
2023-01-27T02:41:07.151Z,99528.03
2023-01-27T02:43:35.227Z,99520.25
2023-01-27T02:46:02.194Z,99530.44
2023-01-27T02:48:28.802Z,99525.09
2023-01-27T02:50:55.473Z,99523.78
2023-01-27T02:53:22.034Z,99517.16
2023-01-27T02:55:48.688Z,99519.81
2023-01-27T02:58:15.193Z,99517.47
2023-01-27T03:00:43.576Z,99519.31
2023-01-27T03:03:10.190Z,99524.97
2023-01-27T03:05:36.917Z,99526.59
2023-01-27T03:08:03.583Z,99522.38
2023-01-27T03:10:30.156Z,99526.91
2023-01-27T03:12:56.687Z,99524.72
2023-01-27T03:15:23.449Z,99523.91
2023-01-27T03:17:51.797Z,99533.56
2023-01-27T03:20:18.832Z,99535.25
2023-01-27T03:22:45.532Z,99533.63
2023-01-27T03:25:12.288Z,99541.66
2023-01-27T03:27:39.108Z,99532.81
2023-01-27T03:30:08.254Z,99523.19
2023-01-27T03:32:35.200Z,99528.53
2023-01-27T03:35:03.721Z,99533.88
2023-01-27T03:37:31.698Z,99538.44
2023-01-27T03:39:58.291Z,99539.25
2023-01-27T03:42:24.975Z,99533.38
2023-01-27T03:44:51.674Z,99538.72
2023-01-27T03:47:18.232Z,99538.72
2023-01-27T03:49:44.777Z,99540.34
2023-01-27T03:52:12.699Z,99538.97
2023-01-27T03:54:39.340Z,99552.09
2023-01-27T03:57:05.995Z,99546.75
2023-01-27T03:59:32.994Z,99542.22
2023-01-27T04:02:01.003Z,99546.19
2023-01-27T04:04:27.812Z,99549.66
2023-01-27T04:06:54.434Z,99541.66
2023-01-27T04:09:24.361Z,99540.84
2023-01-27T04:11:51.123Z,99544.88
2023-01-27T04:14:17.652Z,99533.38
2023-01-27T04:16:44.797Z,99537.41
2023-01-27T04:19:12.082Z,99537.19
2023-01-27T04:21:38.887Z,99537.22
2023-01-27T04:24:06.275Z,99543.09
2023-01-27T04:26:35.332Z,99545.00
2023-01-27T04:29:03.451Z,99537.47
2023-01-27T04:31:30.882Z,99540.66
2023-01-27T04:33:57.472Z,99540.41
2023-01-27T04:36:24.195Z,99558.59
2023-01-27T04:38:50.841Z,99554.03
2023-01-27T04:41:17.384Z,99552.19
2023-01-27T04:43:45.296Z,99557.78
2023-01-27T04:46:11.927Z,99550.00
2023-01-27T04:48:38.714Z,99554.28
2023-01-27T04:51:05.647Z,99556.16
2023-01-27T04:53:32.199Z,99565.00
2023-01-27T04:56:02.872Z,99553.00
2023-01-27T04:58:29.519Z,99562.88
2023-01-27T05:00:57.636Z,99563.69
2023-01-27T05:03:24.192Z,99562.06
2023-01-27T05:05:51.764Z,99568.53
2023-01-27T05:08:18.500Z,99573.88
2023-01-27T05:10:45.071Z,99570.97
2023-01-27T05:13:11.909Z,99570.16
2023-01-27T05:15:38.527Z,99569.34
2023-01-27T05:18:06.485Z,99571.78
2023-01-27T05:20:32.999Z,99569.91
2023-01-27T05:22:59.557Z,99571.84
2023-01-27T05:25:26.151Z,99579.31
2023-01-27T05:27:53.773Z,99579.06
2023-01-27T05:30:20.469Z,99574.53
2023-01-27T05:32:47.038Z,99584.44
2023-01-27T05:35:15.309Z,99588.16
2023-01-27T05:37:41.980Z,99591.66
2023-01-27T05:40:10.237Z,99590.59
2023-01-27T05:42:36.797Z,99592.47
2023-01-27T05:45:03.826Z,99593.50
2023-01-27T05:47:30.349Z,99601.34
2023-01-27T05:49:56.861Z,99600.53
2023-01-27T05:52:24.963Z,99600.78
2023-01-27T05:54:51.521Z,99596.81
2023-01-27T05:57:18.185Z,99603.22
2023-01-27T05:59:44.914Z,99600.28
2023-01-27T06:02:11.543Z,99601.91
2023-01-27T06:04:38.131Z,99601.34
2023-01-27T06:07:04.662Z,99607.03
2023-01-27T06:09:32.593Z,99601.09
2023-01-27T06:11:59.160Z,99612.63
2023-01-27T06:14:25.813Z,99601.66
2023-01-27T06:16:52.483Z,99611.56
2023-01-27T06:19:19.051Z,99612.06
2023-01-27T06:21:45.797Z,99603.53
2023-01-27T06:24:13.683Z,99617.97
2023-01-27T06:26:41.850Z,99615.56
2023-01-27T06:29:08.401Z,99622.28
2023-01-27T06:31:35.060Z,99623.59
2023-01-27T06:34:01.654Z,99626.25
2023-01-27T06:36:28.250Z,99629.22
2023-01-27T06:38:54.988Z,99628.13
2023-01-27T06:41:21.636Z,99627.63
2023-01-27T06:43:49.492Z,99624.97
2023-01-27T06:46:16.093Z,99630.56
2023-01-27T06:48:42.661Z,99630.03
2023-01-27T06:51:09.401Z,99632.22
2023-01-27T06:53:35.939Z,99636.78
2023-01-27T06:56:02.711Z,99642.13
2023-01-27T06:58:29.780Z,99635.97
2023-01-27T07:00:57.716Z,99635.72
2023-01-27T07:03:24.385Z,99641.88
2023-01-27T07:05:51.190Z,99644.56
2023-01-27T07:08:17.767Z,99649.69
2023-01-27T07:10:44.315Z,99650.50
2023-01-27T07:13:12.408Z,99644.31
2023-01-27T07:15:39.437Z,99653.16
2023-01-27T07:18:07.494Z,99648.38
2023-01-27T07:20:34.461Z,99651.06
2023-01-27T07:23:02.552Z,99649.72
2023-01-27T07:25:30.449Z,99650.53
2023-01-27T07:27:57.336Z,99651.59
2023-01-27T07:30:24.064Z,99647.63
2023-01-27T07:32:50.601Z,99651.66
2023-01-27T07:35:18.670Z,99651.97
2023-01-27T07:37:45.301Z,99658.69
2023-01-27T07:40:13.109Z,99655.44
2023-01-27T07:42:40.496Z,99665.91
2023-01-27T07:45:08.497Z,99663.00
2023-01-27T07:47:35.204Z,99667.88
2023-01-27T07:50:02.093Z,99676.19
2023-01-27T07:52:30.200Z,99678.38
2023-01-27T07:54:56.734Z,99678.13
2023-01-27T07:57:23.465Z,99685.38
2023-01-27T07:59:49.991Z,99688.84
2023-01-27T08:02:16.594Z,99693.16
2023-01-27T08:04:52.478Z,99690.47
2023-01-27T08:07:20.385Z,99693.69
2023-01-27T08:09:48.678Z,99686.47
2023-01-27T08:12:15.548Z,99697.75
2023-01-27T08:14:42.089Z,99695.16
2023-01-27T08:17:08.617Z,99695.97
2023-01-27T08:19:35.346Z,99699.13
2023-01-27T08:22:02.015Z,99693.53
2023-01-27T08:24:28.731Z,99713.09
2023-01-27T08:26:56.849Z,99710.41
2023-01-27T08:29:23.481Z,99713.94
2023-01-27T08:31:50.170Z,99712.56
2023-01-27T08:34:16.949Z,99707.28
2023-01-27T08:36:43.528Z,99712.66
2023-01-27T08:39:10.558Z,99710.78
2023-01-27T08:41:37.097Z,99709.53
2023-01-27T08:44:05.515Z,99724.84
2023-01-27T08:46:32.379Z,99717.13
2023-01-27T08:48:59.145Z,99725.72
2023-01-27T08:51:25.893Z,99729.50
2023-01-27T08:53:52.454Z,99727.16
2023-01-27T08:56:19.289Z,99724.78
2023-01-27T08:58:46.196Z,99733.72
2023-01-27T09:01:15.344Z,99728.97
2023-01-27T09:03:41.962Z,99725.28
2023-01-27T09:06:10.496Z,99720.50
2023-01-27T09:08:37.218Z,99722.97
2023-01-27T09:11:09.312Z,99725.72
2023-01-27T09:13:35.865Z,99725.56
2023-01-27T09:16:02.966Z,99722.19
2023-01-27T09:18:30.960Z,99720.66
2023-01-27T09:20:57.532Z,99728.22
2023-01-27T09:23:24.136Z,99723.75
2023-01-27T09:25:50.654Z,99724.38
2023-01-27T09:28:17.379Z,99734.31
2023-01-27T09:30:46.074Z,99740.00
2023-01-27T09:33:15.657Z,99742.22
2023-01-27T09:35:46.750Z,99744.69
2023-01-27T09:38:16.310Z,99748.81
2023-01-27T09:41:08.661Z,99751.56
2023-01-27T09:43:56.701Z,99747.03
2023-01-27T09:46:47.635Z,99749.50
2023-01-27T09:49:30.263Z,99756.81
2023-01-27T09:52:11.573Z,99759.75
2023-01-27T09:54:52.839Z,99765.66
2023-01-27T09:57:34.796Z,99764.00
2023-01-27T10:00:12.052Z,99767.75
2023-01-27T10:03:14.168Z,99769.56
2023-01-27T10:06:03.825Z,99768.75
2023-01-27T10:08:54.458Z,99767.88
2023-01-27T10:11:30.315Z,99773.81
2023-01-27T10:14:10.414Z,99768.94
2023-01-27T10:16:52.062Z,99774.88
2023-01-27T10:19:35.871Z,99773.28
2023-01-27T10:22:13.758Z,99775.72
2023-01-27T10:24:52.161Z,99778.16
2023-01-27T10:27:22.493Z,99767.47
2023-01-27T10:29:56.828Z,99774.53
2023-01-27T10:32:26.369Z,99767.00
2023-01-27T10:35:03.631Z,99773.50
2023-01-27T10:37:42.130Z,99771.09
2023-01-27T10:40:17.951Z,99775.94
2023-01-27T10:42:53.066Z,99773.47
2023-01-27T10:45:27.689Z,99778.84
2023-01-27T10:48:18.429Z,99776.41
2023-01-27T10:50:49.160Z,99775.00
2023-01-27T10:53:19.971Z,99785.25
2023-01-27T10:55:54.399Z,99782.28
2023-01-27T10:58:31.484Z,99777.97
2023-01-27T11:03:51.222Z,99790.13
2023-01-27T11:06:22.562Z,99780.69
2023-01-27T11:08:53.344Z,99785.25
2023-01-27T11:11:24.979Z,99786.31
2023-01-27T11:13:58.716Z,99776.63
2023-01-27T11:16:29.395Z,99778.19
2023-01-27T11:19:03.933Z,99773.88
2023-01-27T11:21:32.844Z,99784.09
2023-01-27T11:24:11.680Z,99785.50
2023-01-27T11:26:43.551Z,99779.56
2023-01-27T11:29:21.563Z,99770.69
2023-01-27T11:31:54.786Z,99774.47
2023-01-27T11:34:30.311Z,99774.78
2023-01-27T11:36:56.966Z,99776.06
2023-01-27T11:39:24.386Z,99767.75
2023-01-27T11:41:54.399Z,99778.25
2023-01-27T11:44:24.383Z,99766.88
2023-01-27T11:46:52.507Z,99770.69
2023-01-27T11:49:24.477Z,99761.84
2023-01-27T11:51:51.257Z,99756.50
2023-01-27T11:54:21.602Z,99753.84
2023-01-27T11:56:50.297Z,99747.16
2023-01-27T11:59:23.064Z,99742.63
2023-01-27T12:01:53.999Z,99745.59
2023-01-27T12:04:25.969Z,99745.59
2023-01-27T12:06:57.442Z,99737.25
2023-01-27T12:09:31.905Z,99735.09
2023-01-27T12:12:26.715Z,99735.91
2023-01-27T12:14:56.755Z,99738.34
2023-01-27T12:17:31.231Z,99733.22
2023-01-27T12:20:00.841Z,99732.69
2023-01-27T12:22:32.551Z,99735.63
2023-01-27T12:25:03.383Z,99735.91
2023-01-27T12:27:38.400Z,99731.03
2023-01-27T12:30:17.743Z,99729.41
2023-01-27T12:32:47.271Z,99726.44
2023-01-27T12:35:21.529Z,99721.88
2023-01-27T12:37:49.609Z,99728.91
2023-01-27T12:40:20.249Z,99728.06
2023-01-27T12:42:48.914Z,99728.88
2023-01-27T12:45:26.361Z,99730.22
2023-01-27T12:48:02.642Z,99727.25
2023-01-27T12:50:31.529Z,99718.63
2023-01-27T12:53:09.650Z,99728.06
2023-01-27T12:55:40.387Z,99718.13
2023-01-27T12:58:28.621Z,99723.25
2023-01-27T13:00:58.148Z,99717.06
2023-01-27T13:03:26.185Z,99715.16
2023-01-27T13:05:54.913Z,99721.91
2023-01-27T13:08:22.791Z,99721.09
2023-01-27T13:10:51.224Z,99723.78
2023-01-27T13:13:21.342Z,99721.09
2023-01-27T13:15:52.719Z,99721.88
2023-01-27T13:18:21.745Z,99718.38
2023-01-27T13:20:51.485Z,99725.66
2023-01-27T13:23:20.810Z,99728.91
2023-01-27T13:25:52.622Z,99726.47
2023-01-27T13:28:25.726Z,99732.41
2023-01-27T13:30:58.269Z,99724.59
2023-01-27T13:33:34.212Z,99726.75
2023-01-27T13:36:07.163Z,99734.53
2023-01-27T13:38:42.955Z,99741.53
2023-01-27T13:41:18.170Z,99740.47
2023-01-27T13:43:55.747Z,99740.47
2023-01-27T13:46:27.012Z,99741.28
2023-01-27T13:48:58.742Z,99745.31
2023-01-27T13:51:29.407Z,99742.63
2023-01-27T13:53:59.988Z,99741.78
2023-01-27T13:56:38.212Z,99746.88
2023-01-27T13:59:21.496Z,99745.78
2023-01-27T14:01:55.651Z,99751.69
2023-01-27T14:04:41.700Z,99753.03
2023-01-27T14:07:18.157Z,99753.31
2023-01-27T14:10:00.556Z,99744.41
2023-01-27T14:12:39.714Z,99751.13
2023-01-27T14:15:22.530Z,99745.72
2023-01-27T14:17:54.500Z,99754.84
2023-01-27T14:20:37.956Z,99756.47
2023-01-27T14:23:16.393Z,99755.41
2023-01-27T14:25:53.893Z,99757.53
2023-01-27T14:28:31.436Z,99760.75
2023-01-27T14:31:04.036Z,99759.13
2023-01-27T14:33:49.480Z,99762.63
2023-01-27T14:36:20.660Z,99760.44
2023-01-27T14:38:58.845Z,99765.50
2023-01-27T14:41:31.397Z,99768.19
2023-01-27T14:44:06.352Z,99767.63
2023-01-27T14:46:58.848Z,99771.13
2023-01-27T14:49:40.092Z,99772.72
2023-01-27T14:52:27.485Z,99770.00
2023-01-27T14:55:10.012Z,99773.50
2023-01-27T14:57:48.047Z,99772.41
2023-01-27T15:00:30.415Z,99777.25
2023-01-27T15:03:16.633Z,99769.44
2023-01-27T15:06:01.403Z,99775.56
2023-01-27T15:08:38.624Z,99777.47
2023-01-27T15:11:22.328Z,99785.50
2023-01-27T15:14:06.439Z,99790.06
2023-01-27T15:16:48.366Z,99784.13
2023-01-27T15:19:53.967Z,99792.19
2023-01-27T15:23:00.276Z,99797.56
2023-01-27T15:25:32.634Z,99792.44
2023-01-27T15:28:00.836Z,99786.25
2023-01-27T15:30:29.576Z,99790.81
2023-01-27T15:32:56.429Z,99798.59
2023-01-27T15:35:39.704Z,99802.63
2023-01-27T15:38:20.239Z,99799.63
2023-01-27T15:41:04.515Z,99810.66
2023-01-27T15:43:31.818Z,99809.28
2023-01-27T15:46:19.821Z,99815.72
2023-01-27T15:48:47.635Z,99813.81
2023-01-27T15:51:17.974Z,99822.63
2023-01-27T15:53:48.697Z,99819.38
2023-01-27T15:56:16.751Z,99816.94
2023-01-27T15:58:50.677Z,99813.16
2023-01-27T16:01:26.659Z,99822.78
2023-01-27T16:04:07.773Z,99831.16
2023-01-27T16:06:35.664Z,99825.72
2023-01-27T16:09:05.229Z,99825.72
2023-01-27T16:11:41.765Z,99835.69
2023-01-27T16:14:39.942Z,99826.81
2023-01-27T16:17:21.545Z,99832.13
2023-01-27T16:19:57.535Z,99835.31
2023-01-27T16:22:25.240Z,99839.91
2023-01-27T16:24:54.333Z,99834.78
2023-01-27T16:27:34.057Z,99843.06
2023-01-27T16:30:11.353Z,99843.06
2023-01-27T16:32:42.215Z,99842.50
2023-01-27T16:35:17.106Z,99851.63
2023-01-27T16:37:59.639Z,99850.81
2023-01-27T16:40:27.565Z,99858.88
2023-01-27T16:42:59.364Z,99864.78
2023-01-27T16:45:30.130Z,99864.19
2023-01-27T16:48:02.041Z,99855.91
2023-01-27T16:50:34.754Z,99864.78
2023-01-27T16:53:03.636Z,99875.44
2023-01-27T16:55:30.770Z,99873.25
2023-01-27T16:57:59.820Z,99873.25
2023-01-27T17:00:29.022Z,99869.22
2023-01-27T17:02:59.298Z,99875.88
2023-01-27T17:05:26.963Z,99884.75
2023-01-27T17:08:16.796Z,99881.25
2023-01-27T17:10:48.990Z,99886.63
2023-01-27T17:13:32.159Z,99882.31
2023-01-27T17:16:00.716Z,99883.38
2023-01-27T17:18:30.057Z,99883.63
2023-01-27T17:20:58.294Z,99877.72
2023-01-27T17:23:31.717Z,99879.34
2023-01-27T17:26:04.256Z,99876.34
2023-01-27T17:28:32.644Z,99887.31
2023-01-27T17:31:07.593Z,99890.56
2023-01-27T17:33:36.149Z,99895.88
2023-01-27T17:36:10.159Z,99889.44
2023-01-27T17:38:43.801Z,99888.34
2023-01-27T17:41:32.629Z,99898.25
2023-01-27T17:44:01.504Z,99892.88
2023-01-27T17:46:31.533Z,99901.50
2023-01-27T17:49:01.007Z,99906.31
2023-01-27T17:51:33.171Z,99904.19
2023-01-27T17:54:00.721Z,99909.22
2023-01-27T17:56:29.092Z,99907.59
2023-01-27T17:59:01.459Z,99900.63
2023-01-27T18:01:28.312Z,99905.69
2023-01-27T18:03:57.389Z,99913.16
2023-01-27T18:06:27.803Z,99914.56
2023-01-27T18:08:56.643Z,99919.34
2023-01-27T18:11:26.703Z,99926.81
2023-01-27T18:13:54.213Z,99934.88
2023-01-27T18:16:23.706Z,99929.19
2023-01-27T18:18:50.888Z,99920.59
2023-01-27T18:21:23.190Z,99927.31
2023-01-27T18:23:52.220Z,99927.31
2023-01-27T18:26:25.776Z,99932.44
2023-01-27T18:28:55.661Z,99928.66
2023-01-27T18:31:26.918Z,99932.38
2023-01-27T18:33:58.574Z,99934.25
2023-01-27T18:36:29.772Z,99935.31
2023-01-27T18:38:56.261Z,99939.06
2023-01-27T18:41:25.278Z,99944.66
2023-01-27T18:43:51.808Z,99945.13
2023-01-27T18:46:18.400Z,99945.13
2023-01-27T18:48:46.559Z,99953.72
2023-01-27T18:51:15.030Z,99948.59
2023-01-27T18:53:42.557Z,99949.88
2023-01-27T18:56:09.360Z,99947.94
2023-01-27T18:58:36.643Z,99945.03
2023-01-27T19:01:05.044Z,99955.19
2023-01-27T19:03:32.169Z,99947.63
2023-01-27T19:06:00.421Z,99950.06
2023-01-27T19:08:27.345Z,99950.06
2023-01-27T19:10:53.937Z,99944.13
2023-01-27T19:13:20.642Z,99953.47
2023-01-27T19:15:49.952Z,99950.25
2023-01-27T19:18:21.389Z,99951.06
2023-01-27T19:20:48.012Z,99960.41
2023-01-27T19:23:18.252Z,99960.41
2023-01-27T19:25:46.858Z,99961.44
2023-01-27T19:28:19.687Z,99965.53
2023-01-27T19:30:46.634Z,99966.25
2023-01-27T19:33:17.402Z,99969.97
2023-01-27T19:35:46.415Z,99960.56
2023-01-27T19:38:13.331Z,99962.50
2023-01-27T19:40:42.290Z,99961.44
2023-01-27T19:43:12.167Z,99962.75
2023-01-27T19:45:39.324Z,99970.25
2023-01-27T19:48:13.125Z,99968.63
2023-01-27T19:50:39.998Z,99965.94
2023-01-27T19:53:06.701Z,99967.22
2023-01-27T19:55:34.386Z,99958.13
2023-01-27T19:58:02.372Z,99961.06
2023-01-27T20:00:30.752Z,99969.09
2023-01-27T20:02:57.475Z,99970.63
2023-01-27T20:05:25.996Z,99970.41
2023-01-27T20:07:54.119Z,99972.78
2023-01-27T20:10:22.808Z,99967.66
2023-01-27T20:12:54.078Z,99967.66
2023-01-27T20:15:22.845Z,99970.09
2023-01-27T20:17:49.399Z,99976.25
2023-01-27T20:20:16.399Z,99982.44
2023-01-27T20:22:42.979Z,99983.72
2023-01-27T20:25:13.524Z,99985.59
2023-01-27T20:27:41.209Z,99990.47
2023-01-27T20:30:09.124Z,99986.16
2023-01-27T20:32:37.001Z,99977.31
2023-01-27T20:35:03.915Z,99986.66
2023-01-27T20:37:30.528Z,99983.16
2023-01-27T20:39:57.136Z,99993.31
2023-01-27T20:42:23.849Z,99985.25
2023-01-27T20:44:50.730Z,99981.53
2023-01-27T20:47:17.293Z,99985.25
2023-01-27T20:49:45.215Z,99982.34
2023-01-27T20:52:11.782Z,99986.59
2023-01-27T20:54:38.359Z,99993.53
2023-01-27T20:57:04.974Z,99998.59
2023-01-27T20:59:31.521Z,100004.53
2023-01-27T21:01:58.124Z,100005.66
2023-01-27T21:04:25.268Z,100009.63
2023-01-27T21:06:53.193Z,100008.56
2023-01-27T21:09:19.740Z,100009.38
2023-01-27T21:11:46.277Z,100016.13
2023-01-27T21:14:12.839Z,100019.28
2023-01-27T21:16:39.401Z,100028.16
2023-01-27T21:19:06.103Z,100020.34
2023-01-27T21:21:32.699Z,100024.66
2023-01-27T21:24:00.682Z,100021.72
2023-01-27T21:26:27.383Z,100026.84
2023-01-27T21:28:54.314Z,100032.69
2023-01-27T21:31:22.062Z,100025.97
2023-01-27T21:33:48.781Z,100029.47
2023-01-27T21:36:15.693Z,100027.34
2023-01-27T21:38:42.344Z,100029.19
2023-01-27T21:41:13.099Z,100024.88
2023-01-27T21:43:39.872Z,100029.19
2023-01-27T21:46:06.436Z,100021.66
2023-01-27T21:48:32.981Z,100026.69
2023-01-27T21:50:59.684Z,100024.81
2023-01-27T21:53:26.255Z,100028.47
2023-01-27T21:55:52.834Z,100041.28
2023-01-27T21:58:20.738Z,100030.47
2023-01-27T22:00:47.275Z,100030.16
2023-01-27T22:03:13.856Z,100033.06
2023-01-27T22:05:40.599Z,100038.59
2023-01-27T22:08:07.160Z,100036.16
2023-01-27T22:10:34.291Z,100033.94
2023-01-27T22:13:03.424Z,100030.69
2023-01-27T22:15:31.831Z,100019.97
2023-01-27T22:17:58.608Z,100019.19
2023-01-27T22:20:25.899Z,100023.97
2023-01-27T22:22:52.592Z,100026.06
2023-01-27T22:25:19.616Z,100016.63
2023-01-27T22:27:46.921Z,100024.66
2023-01-27T22:30:16.381Z,100026.53
2023-01-27T22:32:45.170Z,100017.22
2023-01-27T22:35:15.350Z,100017.69
2023-01-27T22:37:42.187Z,100013.97
2023-01-27T22:40:10.683Z,100015.81
2023-01-27T22:42:37.247Z,100009.66
2023-01-27T22:45:04.455Z,100003.75
2023-01-27T22:47:30.984Z,100011.28
2023-01-27T22:49:58.985Z,100013.72
2023-01-27T22:52:25.601Z,100013.97
2023-01-27T22:54:52.152Z,100015.00
2023-01-27T22:57:18.688Z,100013.13
2023-01-27T22:59:45.267Z,100008.84
2023-01-27T23:02:11.897Z,100012.81
2023-01-27T23:04:38.601Z,100010.47
2023-01-27T23:07:06.623Z,100000.31
2023-01-27T23:09:33.204Z,100005.91
2023-01-27T23:11:59.748Z,100006.16
2023-01-27T23:14:26.342Z,100011.78
2023-01-27T23:16:53.000Z,100016.06
2023-01-27T23:19:19.939Z,100015.28
2023-01-27T23:21:46.461Z,100010.97
2023-01-27T23:24:14.493Z,100016.56
2023-01-27T23:26:41.266Z,100015.75
2023-01-27T23:29:22.832Z,100002.59
2023-01-27T23:31:50.837Z,100006.31
2023-01-27T23:34:17.611Z,100007.84
2023-01-27T23:36:44.150Z,100006.53
2023-01-27T23:39:15.513Z,100003.31
2023-01-27T23:41:42.127Z,100003.06
2023-01-27T23:44:10.767Z,99992.94
2023-01-27T23:46:37.592Z,99996.88
2023-01-27T23:49:04.589Z,100001.19
2023-01-27T23:51:31.203Z,100007.59
2023-01-27T23:53:57.808Z,100015.63
2023-01-27T23:56:25.760Z,100012.13
2023-01-27T23:58:52.266Z,100013.22
